createdAt,value
2017-07-20T00:00:22.503Z,76.13
2017-07-20T00:01:18.796Z,76.20
2017-07-20T00:02:15.094Z,76.20
2017-07-20T00:03:12.487Z,76.24
2017-07-20T00:04:08.782Z,76.25
2017-07-20T00:05:05.042Z,76.23
2017-07-20T00:06:01.306Z,76.18
2017-07-20T00:06:57.558Z,76.17
2017-07-20T00:07:53.818Z,76.24
2017-07-20T00:08:50.402Z,76.24
2017-07-20T00:09:46.667Z,76.27
2017-07-20T00:10:43.370Z,76.27
2017-07-20T00:11:40.530Z,76.26
2017-07-20T00:12:36.798Z,76.35
2017-07-20T00:13:33.074Z,76.29
2017-07-20T00:14:29.347Z,76.35
2017-07-20T00:15:25.634Z,76.39
2017-07-20T00:16:21.913Z,76.45
2017-07-20T00:17:18.228Z,76.46
2017-07-20T00:18:14.505Z,76.50
2017-07-20T00:19:10.774Z,76.52
2017-07-20T00:20:07.045Z,76.57
2017-07-20T00:21:03.291Z,76.57
2017-07-20T00:21:59.548Z,76.55
2017-07-20T00:22:55.805Z,76.47
2017-07-20T00:23:52.114Z,76.38
2017-07-20T00:24:48.402Z,76.40
2017-07-20T00:25:44.688Z,76.41
2017-07-20T00:26:40.967Z,76.38
2017-07-20T00:27:37.247Z,76.39
2017-07-20T00:28:33.502Z,76.38
2017-07-20T00:29:29.754Z,76.40
2017-07-20T00:30:26.014Z,76.43
2017-07-20T00:31:22.327Z,76.42
2017-07-20T00:32:18.598Z,76.47
2017-07-20T00:33:14.878Z,76.48
2017-07-20T00:34:11.191Z,76.46
2017-07-20T00:35:08.174Z,76.45
2017-07-20T00:36:04.450Z,76.40
2017-07-20T00:37:00.718Z,76.37
2017-07-20T00:37:57.023Z,76.39
2017-07-20T00:38:53.283Z,76.36
2017-07-20T00:39:49.558Z,76.31
2017-07-20T00:40:45.806Z,76.33
2017-07-20T00:41:42.066Z,76.37
2017-07-20T00:42:38.323Z,76.41
2017-07-20T00:43:34.562Z,76.47
2017-07-20T00:44:30.802Z,76.48
2017-07-20T00:45:27.047Z,76.51
2017-07-20T00:46:23.383Z,76.55
2017-07-20T00:47:19.662Z,76.58
2017-07-20T00:48:15.995Z,76.64
2017-07-20T00:49:12.267Z,76.68
2017-07-20T00:50:08.571Z,76.74
2017-07-20T00:51:04.867Z,76.70
2017-07-20T00:52:01.126Z,76.70
2017-07-20T00:52:57.375Z,76.71
2017-07-20T00:53:53.617Z,76.69
2017-07-20T00:54:49.878Z,76.69
2017-07-20T00:55:46.111Z,76.69
2017-07-20T00:56:42.422Z,76.69
2017-07-20T00:57:38.666Z,76.69
2017-07-20T00:58:34.906Z,76.68
2017-07-20T00:59:31.152Z,76.66
2017-07-20T01:00:27.406Z,76.64
2017-07-20T01:01:23.637Z,76.65
2017-07-20T01:02:19.938Z,76.66
2017-07-20T01:03:16.198Z,76.65
2017-07-20T01:04:12.468Z,76.69
2017-07-20T01:05:09.139Z,76.67
2017-07-20T01:06:05.415Z,76.66
2017-07-20T01:07:01.686Z,76.70
2017-07-20T01:07:57.942Z,76.71
2017-07-20T01:08:54.179Z,76.78
2017-07-20T01:09:50.415Z,76.88
2017-07-20T01:10:46.662Z,76.89
2017-07-20T01:11:42.914Z,76.92
2017-07-20T01:12:39.335Z,76.92
2017-07-20T01:13:35.618Z,77.00
2017-07-20T01:14:31.922Z,77.04
2017-07-20T01:15:28.400Z,77.11
2017-07-20T01:16:24.727Z,77.17
2017-07-20T01:17:21.040Z,77.21
2017-07-20T01:18:17.374Z,77.21
2017-07-20T01:19:13.790Z,77.28
2017-07-20T01:20:10.151Z,77.30
2017-07-20T01:21:06.439Z,77.33
2017-07-20T01:22:02.726Z,77.33
2017-07-20T01:22:58.990Z,77.36
2017-07-20T01:23:55.226Z,77.39
2017-07-20T01:24:51.482Z,77.42
2017-07-20T01:25:47.723Z,77.43
2017-07-20T01:26:43.974Z,77.43
2017-07-20T01:27:40.351Z,77.47
2017-07-20T01:28:36.682Z,77.50
2017-07-20T01:29:32.914Z,77.53
2017-07-20T01:30:29.154Z,77.58
2017-07-20T01:31:25.411Z,77.57
2017-07-20T01:32:21.690Z,77.62
2017-07-20T01:33:17.949Z,77.61
2017-07-20T01:34:14.199Z,77.62
2017-07-20T01:35:10.470Z,77.72
2017-07-20T01:36:06.767Z,77.77
2017-07-20T01:37:03.043Z,77.76
2017-07-20T01:37:59.350Z,77.80
2017-07-20T01:38:55.655Z,77.83
2017-07-20T01:39:51.967Z,77.85
2017-07-20T01:40:48.223Z,77.88
2017-07-20T01:41:44.487Z,77.84
2017-07-20T01:42:40.743Z,77.94
2017-07-20T01:43:37.075Z,77.87
2017-07-20T01:44:33.407Z,77.87
2017-07-20T01:45:29.739Z,77.89
2017-07-20T01:46:26.067Z,77.89
2017-07-20T01:47:22.426Z,77.91
2017-07-20T01:48:18.719Z,77.93
2017-07-20T01:49:15.007Z,77.94
2017-07-20T01:50:11.246Z,78.00
2017-07-20T01:51:07.498Z,78.05
2017-07-20T01:52:03.755Z,78.05
2017-07-20T01:53:00.018Z,78.08
2017-07-20T01:53:56.383Z,78.08
2017-07-20T01:54:52.744Z,78.11
2017-07-20T01:55:49.018Z,78.11
2017-07-20T01:56:45.290Z,78.08
2017-07-20T01:57:41.539Z,78.08
2017-07-20T01:58:37.778Z,78.05
2017-07-20T01:59:34.052Z,78.08
2017-07-20T02:00:30.299Z,78.14
2017-07-20T02:01:26.551Z,78.19
2017-07-20T02:02:24.227Z,78.21
2017-07-20T02:03:20.647Z,78.26
2017-07-20T02:04:16.942Z,78.27
2017-07-20T02:05:13.239Z,78.28
2017-07-20T02:06:09.526Z,78.24
2017-07-20T02:07:05.779Z,78.21
2017-07-20T02:08:02.074Z,78.22
2017-07-20T02:08:58.307Z,78.28
2017-07-20T02:09:54.562Z,78.29
2017-07-20T02:10:50.814Z,78.26
2017-07-20T02:11:47.072Z,78.27
2017-07-20T02:12:43.322Z,78.27
2017-07-20T02:13:39.573Z,78.29
2017-07-20T02:14:35.883Z,78.36
2017-07-20T02:15:32.137Z,78.40
2017-07-20T02:16:28.398Z,78.45
2017-07-20T02:17:24.650Z,78.54
2017-07-20T02:18:21.212Z,78.57
2017-07-20T02:19:17.572Z,78.64
2017-07-20T02:20:13.852Z,78.67
2017-07-20T02:21:10.175Z,78.75
2017-07-20T02:22:06.550Z,78.83
2017-07-20T02:23:02.971Z,78.96
2017-07-20T02:23:59.383Z,79.06
2017-07-20T02:24:55.723Z,79.16
2017-07-20T02:25:52.014Z,79.24
2017-07-20T02:26:48.314Z,79.42
2017-07-20T02:27:45.747Z,79.51
2017-07-20T02:28:42.355Z,79.58
2017-07-20T02:29:38.831Z,79.69
2017-07-20T02:30:36.116Z,79.77
2017-07-20T02:31:32.727Z,79.87
2017-07-20T02:32:29.059Z,80.02
2017-07-20T02:33:25.422Z,80.19
2017-07-20T02:34:21.742Z,80.25
2017-07-20T02:35:18.074Z,80.40
2017-07-20T02:36:16.579Z,80.54
2017-07-20T02:37:13.003Z,80.61
2017-07-20T02:38:09.630Z,80.68
2017-07-20T02:39:05.971Z,80.74
2017-07-20T02:40:02.283Z,80.81
2017-07-20T02:40:58.629Z,80.90
2017-07-20T02:41:55.126Z,81.04
2017-07-20T02:42:52.813Z,81.15
2017-07-20T02:43:53.743Z,81.28
2017-07-20T02:44:51.479Z,81.41
2017-07-20T02:45:47.951Z,81.57
2017-07-20T02:46:44.419Z,81.64
2017-07-20T02:47:43.851Z,81.72
2017-07-20T02:48:40.231Z,81.79
2017-07-20T02:49:37.528Z,81.85
2017-07-20T02:50:33.975Z,81.88
2017-07-20T02:51:30.295Z,81.93
2017-07-20T02:52:26.627Z,81.99
2017-07-20T02:53:22.946Z,82.01
2017-07-20T02:54:19.312Z,82.03
2017-07-20T02:55:15.720Z,82.05
2017-07-20T02:56:12.042Z,82.04
2017-07-20T02:57:08.414Z,82.03
2017-07-20T02:58:05.674Z,82.03
2017-07-20T02:59:02.246Z,82.06
2017-07-20T02:59:58.571Z,82.04
2017-07-20T03:00:54.893Z,82.10
2017-07-20T03:01:51.168Z,82.19
2017-07-20T03:02:47.515Z,82.24
2017-07-20T03:03:44.621Z,82.30
2017-07-20T03:04:41.027Z,82.36
2017-07-20T03:05:37.345Z,82.45
2017-07-20T03:06:33.659Z,82.51
2017-07-20T03:07:30.239Z,82.60
2017-07-20T03:08:27.445Z,82.65
2017-07-20T03:09:23.844Z,82.74
2017-07-20T03:10:20.349Z,82.73
2017-07-20T03:11:16.744Z,82.78
2017-07-20T03:12:13.987Z,82.82
2017-07-20T03:13:10.339Z,82.83
2017-07-20T03:14:06.648Z,82.86
2017-07-20T03:15:02.986Z,82.85
2017-07-20T03:15:59.355Z,82.86
2017-07-20T03:16:55.663Z,82.86
2017-07-20T03:17:51.947Z,82.82
2017-07-20T03:18:49.234Z,82.80
2017-07-20T03:19:45.616Z,82.82
2017-07-20T03:20:42.057Z,82.84
2017-07-20T03:21:38.496Z,82.87
2017-07-20T03:22:34.899Z,82.91
2017-07-20T03:23:31.189Z,82.87
2017-07-20T03:24:29.360Z,82.85
2017-07-20T03:25:26.575Z,82.83
2017-07-20T03:26:22.959Z,82.83
2017-07-20T03:27:19.320Z,82.86
2017-07-20T03:28:15.650Z,82.88
2017-07-20T03:29:11.930Z,82.85
2017-07-20T03:30:09.227Z,82.83
2017-07-20T03:31:05.640Z,82.81
2017-07-20T03:32:02.056Z,82.82
2017-07-20T03:32:58.445Z,82.86
2017-07-20T03:33:54.775Z,82.91
2017-07-20T03:34:51.072Z,82.95
2017-07-20T03:35:47.391Z,83.07
2017-07-20T03:36:43.712Z,83.13
2017-07-20T03:37:40.059Z,83.22
2017-07-20T03:38:36.359Z,83.24
2017-07-20T03:39:32.656Z,83.25
2017-07-20T03:40:28.958Z,83.30
2017-07-20T03:41:26.023Z,83.33
2017-07-20T03:42:22.354Z,83.35
2017-07-20T03:43:18.694Z,83.34
2017-07-20T03:44:15.079Z,83.36
2017-07-20T03:45:11.483Z,83.34
2017-07-20T03:46:07.800Z,83.36
2017-07-20T03:47:04.119Z,83.37
2017-07-20T03:48:00.463Z,83.36
2017-07-20T03:48:56.739Z,83.38
2017-07-20T03:49:53.019Z,83.42
2017-07-20T03:50:49.299Z,83.44
2017-07-20T03:51:45.595Z,83.45
2017-07-20T03:52:42.935Z,83.46
2017-07-20T03:53:40.276Z,83.45
2017-07-20T03:54:36.619Z,83.42
2017-07-20T03:55:33.682Z,83.47
2017-07-20T03:56:30.023Z,83.44
2017-07-20T03:57:26.347Z,83.44
2017-07-20T03:58:22.667Z,83.44
2017-07-20T03:59:19.048Z,83.43
2017-07-20T04:00:15.719Z,83.51
2017-07-20T04:01:12.079Z,83.51
2017-07-20T04:02:08.405Z,83.74
2017-07-20T04:03:05.655Z,83.08
2017-07-20T04:04:02.127Z,82.21
2017-07-20T04:04:58.487Z,81.42
2017-07-20T04:05:54.795Z,80.79
2017-07-20T04:06:51.080Z,80.26
2017-07-20T04:07:47.420Z,79.84
2017-07-20T04:08:43.780Z,79.55
2017-07-20T04:09:40.106Z,79.26
2017-07-20T04:10:36.382Z,78.97
2017-07-20T04:11:32.682Z,78.76
2017-07-20T04:12:29.010Z,78.56
2017-07-20T04:13:25.305Z,78.42
2017-07-20T04:14:21.619Z,78.21
2017-07-20T04:15:17.944Z,78.01
2017-07-20T04:16:14.266Z,77.85
2017-07-20T04:17:10.584Z,77.70
2017-07-20T04:18:07.723Z,77.58
2017-07-20T04:19:04.035Z,77.47
2017-07-20T04:20:00.388Z,77.32
2017-07-20T04:20:56.719Z,77.18
2017-07-20T04:21:53.066Z,77.06
2017-07-20T04:22:49.376Z,77.00
2017-07-20T04:23:45.641Z,76.96
2017-07-20T04:24:43.887Z,76.90
2017-07-20T04:25:40.166Z,76.87
2017-07-20T04:26:36.527Z,76.87
2017-07-20T04:27:33.647Z,76.82
2017-07-20T04:28:29.946Z,76.72
2017-07-20T04:29:26.266Z,76.66
2017-07-20T04:30:22.587Z,76.64
2017-07-20T04:31:18.875Z,76.58
2017-07-20T04:32:15.141Z,76.54
2017-07-20T04:33:11.427Z,76.51
2017-07-20T04:34:07.750Z,76.51
2017-07-20T04:35:04.031Z,76.51
2017-07-20T04:36:00.310Z,76.54
2017-07-20T04:36:57.364Z,76.61
2017-07-20T04:37:53.662Z,76.58
2017-07-20T04:38:54.826Z,76.60
2017-07-20T04:39:51.075Z,76.57
2017-07-20T04:40:47.327Z,76.53
2017-07-20T04:41:44.610Z,76.60
2017-07-20T04:42:40.926Z,76.62
2017-07-20T04:43:37.266Z,76.65
2017-07-20T04:44:33.538Z,76.74
2017-07-20T04:45:30.683Z,76.81
2017-07-20T04:46:26.935Z,76.84
2017-07-20T04:47:23.226Z,76.84
2017-07-20T04:48:20.327Z,76.87
2017-07-20T04:49:16.579Z,76.90
2017-07-20T04:50:12.835Z,76.89
2017-07-20T04:51:09.090Z,76.92
2017-07-20T04:52:05.384Z,76.96
2017-07-20T04:53:01.637Z,76.92
2017-07-20T04:53:57.889Z,76.95
2017-07-20T04:54:54.258Z,76.99
2017-07-20T04:55:50.813Z,76.98
2017-07-20T04:56:47.082Z,76.96
2017-07-20T04:57:44.222Z,76.93
2017-07-20T04:58:40.479Z,77.02
2017-07-20T04:59:36.814Z,77.03
2017-07-20T05:00:33.291Z,77.07
2017-07-20T05:01:29.803Z,77.06
2017-07-20T05:02:26.123Z,77.05
2017-07-20T05:03:22.373Z,77.01
2017-07-20T05:04:18.630Z,76.99
2017-07-20T05:05:16.028Z,77.00
2017-07-20T05:06:12.326Z,77.03
2017-07-20T05:07:08.630Z,77.00
2017-07-20T05:08:04.995Z,77.01
2017-07-20T05:09:01.367Z,76.97
2017-07-20T05:09:57.682Z,76.96
2017-07-20T05:10:54.014Z,76.95
2017-07-20T05:11:50.322Z,76.96
2017-07-20T05:12:46.659Z,76.98
2017-07-20T05:13:42.937Z,77.01
2017-07-20T05:14:41.254Z,76.99
2017-07-20T05:15:37.684Z,77.02
2017-07-20T05:16:34.196Z,77.11
2017-07-20T05:17:30.491Z,77.08
2017-07-20T05:18:26.763Z,77.14
2017-07-20T05:19:23.019Z,77.21
2017-07-20T05:20:19.302Z,77.20
2017-07-20T05:21:15.554Z,77.21
2017-07-20T05:22:11.947Z,77.20
2017-07-20T05:23:08.246Z,77.21
2017-07-20T05:24:04.509Z,77.27
2017-07-20T05:25:00.776Z,77.33
2017-07-20T05:25:57.026Z,77.33
2017-07-20T05:26:53.274Z,77.35
2017-07-20T05:27:49.510Z,77.34
2017-07-20T05:28:45.775Z,77.37
2017-07-20T05:29:42.027Z,77.46
2017-07-20T05:30:38.271Z,77.52
2017-07-20T05:31:35.206Z,77.63
2017-07-20T05:32:31.450Z,77.74
2017-07-20T05:33:27.689Z,77.76
2017-07-20T05:34:23.942Z,77.75
2017-07-20T05:35:20.203Z,77.83
2017-07-20T05:36:16.514Z,77.89
2017-07-20T05:37:12.803Z,77.91
2017-07-20T05:38:09.102Z,77.87
2017-07-20T05:39:05.402Z,77.87
2017-07-20T05:40:01.699Z,77.85
2017-07-20T05:40:58.013Z,77.87
2017-07-20T05:41:54.258Z,77.87
2017-07-20T05:42:50.555Z,77.93
2017-07-20T05:43:46.858Z,77.97
2017-07-20T05:44:43.167Z,78.08
2017-07-20T05:45:39.455Z,78.08
2017-07-20T05:46:35.763Z,78.20
2017-07-20T05:47:32.014Z,78.22
2017-07-20T05:48:28.264Z,78.27
2017-07-20T05:49:24.510Z,78.41
2017-07-20T05:50:20.765Z,78.50
2017-07-20T05:51:17.006Z,78.58
2017-07-20T05:52:13.251Z,78.63
2017-07-20T05:53:09.486Z,78.64
2017-07-20T05:54:05.726Z,78.61
2017-07-20T05:55:01.982Z,78.61
2017-07-20T05:55:58.222Z,78.60
2017-07-20T05:56:54.474Z,78.60
2017-07-20T05:57:50.727Z,78.67
2017-07-20T05:58:46.987Z,78.72
2017-07-20T05:59:43.235Z,78.77
2017-07-20T06:00:39.506Z,78.77
2017-07-20T06:01:35.774Z,78.83
2017-07-20T06:02:32.015Z,78.77
2017-07-20T06:03:28.279Z,78.69
2017-07-20T06:04:24.526Z,78.66
2017-07-20T06:05:20.773Z,78.57
2017-07-20T06:06:17.039Z,78.47
2017-07-20T06:07:13.282Z,78.32
2017-07-20T06:08:09.519Z,78.28
2017-07-20T06:09:05.750Z,78.19
2017-07-20T06:10:01.999Z,78.12
2017-07-20T06:10:58.255Z,78.01
2017-07-20T06:11:54.502Z,77.92
2017-07-20T06:12:50.735Z,77.93
2017-07-20T06:13:46.982Z,77.99
2017-07-20T06:14:43.215Z,78.03
2017-07-20T06:15:39.446Z,78.06
2017-07-20T06:16:35.715Z,78.06
2017-07-20T06:17:31.962Z,77.92
2017-07-20T06:18:28.223Z,77.86
2017-07-20T06:19:24.464Z,77.80
2017-07-20T06:20:20.707Z,77.79
2017-07-20T06:21:16.992Z,77.82
2017-07-20T06:22:13.235Z,77.85
2017-07-20T06:23:09.478Z,77.79
2017-07-20T06:24:05.718Z,77.70
2017-07-20T06:25:01.970Z,77.50
2017-07-20T06:25:58.207Z,77.32
2017-07-20T06:26:54.482Z,77.11
2017-07-20T06:27:50.727Z,77.09
2017-07-20T06:28:46.967Z,77.01
2017-07-20T06:29:43.211Z,76.93
2017-07-20T06:30:39.449Z,76.90
2017-07-20T06:31:35.691Z,76.91
2017-07-20T06:32:31.961Z,77.03
2017-07-20T06:33:28.201Z,77.11
2017-07-20T06:34:24.434Z,77.18
2017-07-20T06:35:20.668Z,77.25
2017-07-20T06:36:16.898Z,77.18
2017-07-20T06:37:13.158Z,77.13
2017-07-20T06:38:09.410Z,77.13
2017-07-20T06:39:05.671Z,77.11
2017-07-20T06:40:01.911Z,77.06
2017-07-20T06:40:58.150Z,77.11
2017-07-20T06:41:54.390Z,77.21
2017-07-20T06:42:50.734Z,77.22
2017-07-20T06:43:47.224Z,77.24
2017-07-20T06:44:43.591Z,77.24
2017-07-20T06:45:39.950Z,77.26
2017-07-20T06:46:36.546Z,77.48
2017-07-20T06:47:32.885Z,77.60
2017-07-20T06:48:29.277Z,77.71
2017-07-20T06:49:25.669Z,77.91
2017-07-20T06:50:21.914Z,77.80
2017-07-20T06:51:18.291Z,77.80
2017-07-20T06:52:14.678Z,77.82
2017-07-20T06:53:11.028Z,77.81
2017-07-20T06:54:07.379Z,77.88
2017-07-20T06:55:03.619Z,77.89
2017-07-20T06:55:59.858Z,77.91
2017-07-20T06:56:56.102Z,77.99
2017-07-20T06:57:52.383Z,77.99
2017-07-20T06:58:48.639Z,77.96
2017-07-20T06:59:44.887Z,77.91
2017-07-20T07:00:41.130Z,77.85
2017-07-20T07:01:37.374Z,77.81
2017-07-20T07:02:33.636Z,77.84
2017-07-20T07:03:29.869Z,77.80
2017-07-20T07:04:26.119Z,77.81
2017-07-20T07:05:22.365Z,77.77
2017-07-20T07:06:18.602Z,77.73
2017-07-20T07:07:14.838Z,77.75
2017-07-20T07:08:11.079Z,77.81
2017-07-20T07:09:07.338Z,77.82
2017-07-20T07:10:03.587Z,77.90
2017-07-20T07:10:59.838Z,77.94
2017-07-20T07:11:56.095Z,78.03
2017-07-20T07:12:52.371Z,78.12
2017-07-20T07:13:48.610Z,78.20
2017-07-20T07:14:44.858Z,78.25
2017-07-20T07:15:41.106Z,78.40
2017-07-20T07:16:37.342Z,78.42
2017-07-20T07:17:33.592Z,78.44
2017-07-20T07:18:29.852Z,78.56
2017-07-20T07:19:26.127Z,78.68
2017-07-20T07:20:22.366Z,78.65
2017-07-20T07:21:18.619Z,78.67
2017-07-20T07:22:14.851Z,78.73
2017-07-20T07:23:11.086Z,78.61
2017-07-20T07:24:07.352Z,78.60
2017-07-20T07:25:03.650Z,78.54
2017-07-20T07:25:59.903Z,78.47
2017-07-20T07:26:56.147Z,78.45
2017-07-20T07:27:52.387Z,78.40
2017-07-20T07:28:48.642Z,78.42
2017-07-20T07:29:44.924Z,78.57
2017-07-20T07:30:41.167Z,78.49
2017-07-20T07:31:37.398Z,78.47
2017-07-20T07:32:33.626Z,78.54
2017-07-20T07:33:29.870Z,78.65
2017-07-20T07:34:26.098Z,78.73
2017-07-20T07:35:22.383Z,78.85
2017-07-20T07:36:18.635Z,79.02
2017-07-20T07:37:14.871Z,79.21
2017-07-20T07:38:11.108Z,79.16
2017-07-20T07:39:07.355Z,79.20
2017-07-20T07:40:03.607Z,79.30
2017-07-20T07:40:59.850Z,79.41
2017-07-20T07:41:56.087Z,79.58
2017-07-20T07:42:52.323Z,79.73
2017-07-20T07:43:48.557Z,79.86
2017-07-20T07:44:44.787Z,79.96
2017-07-20T07:45:41.039Z,79.96
2017-07-20T07:46:38.335Z,79.97
2017-07-20T07:47:34.626Z,80.10
2017-07-20T07:48:30.918Z,80.12
2017-07-20T07:49:27.213Z,80.16
2017-07-20T07:50:23.499Z,80.25
2017-07-20T07:51:19.750Z,80.37
2017-07-20T07:52:16.027Z,80.42
2017-07-20T07:53:12.267Z,80.49
2017-07-20T07:54:08.508Z,80.54
2017-07-20T07:55:04.811Z,80.64
2017-07-20T07:56:01.042Z,80.78
2017-07-20T07:56:57.289Z,80.84
2017-07-20T07:57:53.539Z,80.94
2017-07-20T07:58:49.779Z,81.05
2017-07-20T07:59:46.026Z,81.13
2017-07-20T08:00:42.277Z,81.09
2017-07-20T08:01:38.526Z,81.05
2017-07-20T08:02:34.772Z,81.13
2017-07-20T08:03:31.034Z,81.05
2017-07-20T08:04:27.286Z,81.01
2017-07-20T08:05:23.530Z,80.94
2017-07-20T08:06:19.778Z,80.83
2017-07-20T08:07:16.068Z,80.75
2017-07-20T08:08:12.327Z,80.78
2017-07-20T08:09:08.586Z,80.91
2017-07-20T08:10:04.830Z,80.85
2017-07-20T08:11:01.088Z,80.71
2017-07-20T08:11:57.336Z,80.73
2017-07-20T08:12:53.598Z,80.61
2017-07-20T08:13:49.837Z,80.55
2017-07-20T08:14:46.093Z,80.43
2017-07-20T08:15:42.330Z,80.40
2017-07-20T08:16:38.580Z,80.43
2017-07-20T08:17:34.832Z,80.48
2017-07-20T08:18:31.091Z,80.63
2017-07-20T08:19:27.333Z,80.81
2017-07-20T08:20:23.592Z,80.79
2017-07-20T08:21:19.854Z,80.69
2017-07-20T08:22:16.104Z,80.60
2017-07-20T08:23:12.350Z,80.58
2017-07-20T08:24:09.499Z,80.46
2017-07-20T08:25:05.748Z,80.33
2017-07-20T08:26:01.998Z,80.27
2017-07-20T08:26:58.245Z,80.18
2017-07-20T08:27:54.499Z,80.19
2017-07-20T08:28:50.758Z,80.20
2017-07-20T08:29:47.006Z,80.16
2017-07-20T08:30:43.250Z,80.28
2017-07-20T08:31:39.490Z,80.30
2017-07-20T08:32:35.738Z,80.26
2017-07-20T08:33:31.991Z,80.08
2017-07-20T08:34:28.222Z,79.90
2017-07-20T08:35:24.466Z,79.79
2017-07-20T08:36:21.244Z,79.48
2017-07-20T08:37:17.494Z,79.34
2017-07-20T08:38:13.751Z,79.23
2017-07-20T08:39:10.019Z,79.17
2017-07-20T08:40:06.246Z,79.09
2017-07-20T08:41:02.495Z,79.09
2017-07-20T08:41:58.733Z,78.90
2017-07-20T08:42:54.978Z,78.87
2017-07-20T08:43:51.250Z,78.79
2017-07-20T08:44:47.491Z,78.67
2017-07-20T08:45:43.741Z,78.46
2017-07-20T08:46:39.973Z,78.27
2017-07-20T08:47:36.215Z,78.24
2017-07-20T08:48:32.466Z,78.10
2017-07-20T08:49:28.734Z,77.84
2017-07-20T08:50:24.974Z,77.77
2017-07-20T08:51:21.209Z,77.86
2017-07-20T08:52:17.450Z,77.98
2017-07-20T08:53:13.702Z,77.99
2017-07-20T08:54:09.962Z,78.16
2017-07-20T08:55:06.211Z,78.25
2017-07-20T08:56:02.462Z,78.09
2017-07-20T08:56:58.698Z,77.96
2017-07-20T08:57:54.936Z,77.85
2017-07-20T08:58:51.182Z,77.71
2017-07-20T08:59:47.441Z,77.58
2017-07-20T09:00:43.677Z,77.35
2017-07-20T09:01:39.914Z,77.45
2017-07-20T09:02:36.158Z,77.47
2017-07-20T09:03:32.408Z,77.42
2017-07-20T09:04:28.666Z,77.26
2017-07-20T09:05:24.911Z,77.09
2017-07-20T09:06:21.165Z,77.03
2017-07-20T09:07:17.398Z,76.85
2017-07-20T09:08:13.642Z,76.78
2017-07-20T09:09:09.881Z,76.30
2017-07-20T09:10:06.140Z,76.04
2017-07-20T09:11:02.391Z,76.00
2017-07-20T09:11:58.630Z,75.96
2017-07-20T09:12:54.886Z,75.95
2017-07-20T09:13:51.126Z,75.68
2017-07-20T09:14:47.399Z,75.49
2017-07-20T09:15:43.642Z,75.51
2017-07-20T09:16:39.890Z,75.56
2017-07-20T09:17:36.130Z,75.63
2017-07-20T09:18:32.394Z,75.47
2017-07-20T09:19:28.634Z,75.15
2017-07-20T09:20:24.901Z,74.94
2017-07-20T09:21:21.150Z,74.94
2017-07-20T09:22:17.394Z,74.82
2017-07-20T09:23:13.634Z,74.66
2017-07-20T09:24:09.891Z,74.53
2017-07-20T09:25:06.150Z,74.43
2017-07-20T09:26:02.394Z,74.38
2017-07-20T09:26:58.642Z,74.38
2017-07-20T09:27:54.890Z,74.44
2017-07-20T09:28:51.130Z,74.39
2017-07-20T09:29:47.370Z,74.29
2017-07-20T09:30:43.642Z,74.21
2017-07-20T09:31:39.883Z,74.15
2017-07-20T09:32:36.127Z,74.04
2017-07-20T09:33:32.374Z,73.66
2017-07-20T09:34:28.620Z,73.48
2017-07-20T09:35:24.859Z,73.53
2017-07-20T09:36:21.122Z,73.54
2017-07-20T09:37:17.370Z,73.61
2017-07-20T09:38:13.628Z,73.60
2017-07-20T09:39:09.871Z,73.54
2017-07-20T09:40:06.126Z,73.44
2017-07-20T09:41:02.367Z,73.30
2017-07-20T09:41:58.622Z,73.13
2017-07-20T09:42:54.862Z,72.93
2017-07-20T09:43:51.103Z,72.83
2017-07-20T09:44:47.386Z,72.72
2017-07-20T09:45:43.676Z,72.75
2017-07-20T09:46:39.938Z,72.68
2017-07-20T09:47:36.227Z,72.65
2017-07-20T09:48:32.487Z,72.76
2017-07-20T09:49:28.742Z,72.72
2017-07-20T09:50:24.986Z,72.60
2017-07-20T09:51:21.230Z,72.26
2017-07-20T09:52:17.482Z,71.93
2017-07-20T09:53:13.729Z,71.83
2017-07-20T09:54:09.975Z,71.70
2017-07-20T09:55:06.234Z,71.73
2017-07-20T09:56:02.482Z,71.54
2017-07-20T09:56:58.763Z,71.45
2017-07-20T09:57:55.020Z,71.39
2017-07-20T09:58:51.274Z,71.42
2017-07-20T09:59:47.514Z,71.29
2017-07-20T10:00:43.758Z,71.11
2017-07-20T10:01:40.017Z,71.02
2017-07-20T10:02:36.291Z,70.72
2017-07-20T10:03:32.533Z,70.61
2017-07-20T10:04:28.782Z,70.55
2017-07-20T10:05:25.090Z,70.45
2017-07-20T10:06:21.326Z,70.36
2017-07-20T10:07:17.587Z,70.20
2017-07-20T10:08:13.834Z,70.12
2017-07-20T10:09:10.083Z,70.09
2017-07-20T10:10:06.323Z,69.85
2017-07-20T10:11:02.580Z,69.62
2017-07-20T10:11:58.828Z,69.65
2017-07-20T10:12:55.107Z,69.62
2017-07-20T10:13:51.351Z,69.55
2017-07-20T10:14:47.594Z,69.57
2017-07-20T10:15:43.830Z,69.72
2017-07-20T10:16:40.075Z,69.84
2017-07-20T10:17:36.318Z,69.92
2017-07-20T10:18:32.590Z,69.61
2017-07-20T10:19:28.834Z,69.39
2017-07-20T10:20:26.915Z,69.20
2017-07-20T10:21:23.166Z,69.11
2017-07-20T10:22:19.410Z,68.86
2017-07-20T10:23:15.682Z,68.96
2017-07-20T10:24:11.923Z,69.21
2017-07-20T10:25:08.308Z,69.49
2017-07-20T10:26:04.575Z,69.50
2017-07-20T10:27:00.817Z,69.34
2017-07-20T10:27:57.113Z,69.27
2017-07-20T10:28:53.365Z,69.27
2017-07-20T10:29:49.606Z,69.53
2017-07-20T10:30:45.850Z,69.35
2017-07-20T10:31:42.097Z,69.27
2017-07-20T10:32:38.338Z,69.12
2017-07-20T10:33:34.639Z,69.07
2017-07-20T10:34:30.909Z,69.21
2017-07-20T10:35:27.142Z,69.03
2017-07-20T10:36:23.388Z,68.76
2017-07-20T10:37:19.634Z,68.99
2017-07-20T10:38:15.886Z,68.97
2017-07-20T10:39:12.150Z,68.86
2017-07-20T10:40:08.390Z,68.59
2017-07-20T10:41:04.639Z,68.77
2017-07-20T10:42:00.890Z,68.97
2017-07-20T10:42:57.478Z,69.03
2017-07-20T10:43:53.734Z,69.00
2017-07-20T10:44:50.002Z,68.59
2017-07-20T10:45:46.259Z,68.43
2017-07-20T10:46:42.502Z,68.13
2017-07-20T10:47:38.734Z,68.08
2017-07-20T10:48:35.002Z,67.88
2017-07-20T10:49:31.238Z,67.67
2017-07-20T10:50:27.470Z,67.61
2017-07-20T10:51:23.729Z,67.79
2017-07-20T10:52:19.970Z,68.01
2017-07-20T10:53:16.201Z,68.07
2017-07-20T10:54:12.462Z,68.02
2017-07-20T10:55:09.658Z,67.91
2017-07-20T10:56:06.766Z,67.97
2017-07-20T10:57:03.023Z,67.95
2017-07-20T10:57:59.316Z,67.95
2017-07-20T10:58:55.582Z,67.65
2017-07-20T10:59:51.818Z,67.64
2017-07-20T11:00:48.058Z,67.73
2017-07-20T11:01:44.299Z,67.84
2017-07-20T11:02:40.595Z,68.09
2017-07-20T11:03:36.847Z,68.30
2017-07-20T11:04:33.110Z,68.36
2017-07-20T11:05:29.349Z,68.53
2017-07-20T11:06:25.599Z,68.82
2017-07-20T11:07:21.871Z,68.79
2017-07-20T11:08:18.109Z,68.54
2017-07-20T11:09:14.394Z,68.37
2017-07-20T11:10:10.644Z,68.34
2017-07-20T11:11:06.966Z,68.28
2017-07-20T11:12:03.243Z,68.21
2017-07-20T11:12:59.490Z,68.27
2017-07-20T11:13:55.730Z,68.37
2017-07-20T11:14:52.003Z,68.49
2017-07-20T11:15:48.246Z,68.89
2017-07-20T11:16:44.490Z,69.08
2017-07-20T11:17:40.726Z,69.16
2017-07-20T11:18:36.990Z,69.21
2017-07-20T11:19:33.246Z,69.34
2017-07-20T11:20:29.505Z,69.37
2017-07-20T11:21:25.731Z,69.57
2017-07-20T11:22:22.927Z,69.93
2017-07-20T11:23:19.179Z,70.17
2017-07-20T11:24:15.422Z,70.01
2017-07-20T11:25:11.667Z,69.90
2017-07-20T11:26:07.916Z,69.87
2017-07-20T11:27:04.159Z,69.93
2017-07-20T11:28:00.438Z,70.10
2017-07-20T11:28:56.678Z,70.31
2017-07-20T11:29:52.918Z,70.75
2017-07-20T11:30:49.172Z,70.31
2017-07-20T11:31:45.454Z,70.39
2017-07-20T11:32:41.710Z,70.60
2017-07-20T11:33:37.958Z,70.73
2017-07-20T11:34:34.190Z,70.74
2017-07-20T11:35:30.450Z,70.76
2017-07-20T11:36:26.685Z,70.77
2017-07-20T11:37:22.945Z,70.45
2017-07-20T11:38:19.194Z,70.41
2017-07-20T11:39:15.444Z,70.39
2017-07-20T11:40:11.691Z,70.30
2017-07-20T11:41:07.966Z,70.32
2017-07-20T11:42:04.198Z,70.39
2017-07-20T11:43:00.434Z,70.39
2017-07-20T11:43:56.658Z,70.37
2017-07-20T11:44:52.899Z,70.33
2017-07-20T11:45:49.142Z,70.30
2017-07-20T11:46:45.390Z,70.36
2017-07-20T11:47:41.639Z,70.44
2017-07-20T11:48:37.882Z,70.55
2017-07-20T11:49:34.129Z,70.58
2017-07-20T11:50:30.596Z,70.54
2017-07-20T11:51:26.875Z,70.46
2017-07-20T11:52:23.109Z,70.50
2017-07-20T11:53:19.354Z,70.62
2017-07-20T11:54:15.600Z,70.78
2017-07-20T11:55:11.856Z,70.88
2017-07-20T11:56:08.089Z,71.11
2017-07-20T11:57:04.356Z,71.42
2017-07-20T11:58:00.632Z,71.83
2017-07-20T11:58:56.886Z,71.91
2017-07-20T11:59:53.177Z,72.06
2017-07-20T12:00:49.411Z,72.26
2017-07-20T12:01:45.688Z,72.48
2017-07-20T12:02:41.920Z,72.87
2017-07-20T12:03:38.186Z,72.90
2017-07-20T12:04:34.426Z,73.20
2017-07-20T12:05:30.674Z,73.61